CLIO2: Washita River Nr Clinton, OK

Data processed at Thu May 23 2019 23:50


All information presented herein is the property of the government of the United States of America and may be revised or deleted at any time without prior notice.
Dissemination of this information without the expressed written consent of the Public Affairs Office, Tulsa District U.S. Army Corps of Engineers is strictly prohibited.
These data are gathered electronically and, as presented, have not undergone any form of quality control. These data are not guaranteed to be valid or correct.
Go to home page.
Go to station list.
Go to home page.

Upstream stations:

Downstream station:
Previous Day
Next Day
Current Day
    
SHEF ID:       CLIO2     Washita River near Clinton, OK
STATION TYPE:  
Regulating: Stage =    18.00, Flow =     2090

               PRECIP     STAGE  RIV-FLOW  BAT-LOAD
                   in        ft       cfs      volt
              Ccp-Rev   Ccp-Rev   Ccp-Rev   Ccp-Rev
(US/Central)
05/23 00:00      0.00     13.76      1274     12.36
05/23 01:00      0.00     13.60      1243     12.36
05/23 02:00      0.00     13.47      1218     12.42
05/23 03:00      0.00     13.29      1184     12.36
05/23 04:00      0.00     13.15      1158     12.36
05/23 05:00      0.00     13.03      1135     12.30
05/23 06:00      0.00     12.89      1108     12.30
05/23 07:00      0.00     12.78      1086     12.30
05/23 08:00      0.00     12.63      1057     12.30
05/23 09:00      0.00     12.56      1043     12.89
05/23 10:00      0.00     12.48      1028     12.83
05/23 11:00      0.00     12.36      1005     13.12
05/23 12:00      0.00     12.28       990     13.07
05/23 13:00      0.00     12.16       968     13.18
05/23 14:00      0.00     12.06       949     13.18
05/23 15:00      0.00     11.98       934     13.18
05/23 16:00      0.00     11.88       915     13.53
05/23 17:00      0.00     11.80       900     13.42
05/23 18:00      0.00     11.71       883     13.18
05/23 19:00      0.00     11.61       864     13.18
05/23 20:00      0.00     11.55       853     12.60
05/23 21:00      0.00     11.48       840     12.36
05/23 22:00      0.00     11.41       828     12.36
05/23 23:00      0.00     11.35       817     12.36